createdAt,value
2018-09-30T00:09:28.179Z,0.00
2018-09-30T00:32:22.422Z,0.00
2018-09-30T00:33:22.319Z,0.00
2018-09-30T00:34:22.260Z,0.00
2018-09-30T01:26:07.817Z,0.00
2018-09-30T01:27:04.620Z,0.00
2018-09-30T01:37:16.822Z,0.00
2018-09-30T01:47:19.023Z,0.00
2018-09-30T01:48:18.947Z,0.00
2018-09-30T01:49:18.864Z,0.00
2018-09-30T02:20:15.223Z,0.00
2018-09-30T02:46:20.264Z,0.00
2018-09-30T02:49:07.859Z,0.00
2018-09-30T02:50:07.733Z,0.00
2018-09-30T02:51:07.743Z,0.00
2018-09-30T02:52:07.829Z,0.00
2018-09-30T03:00:42.060Z,0.00
2018-09-30T03:01:41.968Z,0.00
2018-09-30T03:08:26.804Z,0.00
2018-09-30T03:09:26.771Z,0.00
2018-09-30T03:10:26.624Z,0.00
2018-09-30T03:11:26.670Z,0.00
2018-09-30T03:12:26.670Z,0.00
2018-09-30T03:13:26.651Z,0.00
2018-09-30T03:14:26.562Z,0.00
2018-09-30T03:15:26.470Z,0.00
2018-09-30T03:16:26.673Z,0.00
2018-09-30T03:17:26.459Z,0.00
2018-09-30T03:18:26.514Z,0.00
2018-09-30T03:19:26.591Z,0.00
2018-09-30T03:20:26.465Z,0.00
2018-09-30T03:21:26.437Z,0.00
2018-09-30T03:22:26.427Z,0.00
2018-09-30T03:23:26.412Z,0.00
2018-09-30T03:24:26.579Z,0.00
2018-09-30T03:25:26.514Z,0.00
2018-09-30T03:26:26.451Z,0.00
2018-09-30T03:27:26.434Z,0.00
2018-09-30T03:28:26.373Z,0.00
2018-09-30T03:29:26.343Z,0.00
2018-09-30T03:30:26.309Z,0.00
2018-09-30T03:31:26.362Z,0.00
2018-09-30T03:32:26.327Z,0.00
2018-09-30T03:33:26.286Z,0.00
2018-09-30T03:34:26.312Z,0.00
2018-09-30T04:00:33.469Z,0.00
2018-09-30T04:01:32.578Z,0.00
2018-09-30T04:02:32.566Z,0.00
2018-09-30T04:03:32.559Z,0.00
2018-09-30T04:04:32.565Z,0.00
2018-09-30T04:05:33.366Z,0.00
2018-09-30T04:06:32.526Z,0.00
2018-09-30T04:07:32.831Z,0.00
2018-09-30T04:08:32.502Z,0.00
2018-09-30T04:09:32.559Z,0.00
2018-09-30T04:10:32.480Z,0.00
2018-09-30T04:11:32.469Z,0.00
2018-09-30T04:12:32.458Z,0.00
2018-09-30T04:13:32.815Z,0.00
2018-09-30T04:14:32.874Z,0.00
2018-09-30T04:15:32.826Z,0.00
2018-09-30T04:16:32.825Z,0.00
2018-09-30T04:17:32.499Z,0.00
2018-09-30T04:18:32.863Z,0.00
2018-09-30T04:19:33.030Z,0.00
2018-09-30T04:20:32.684Z,0.00
2018-09-30T04:21:32.405Z,0.00
2018-09-30T04:22:32.343Z,0.00
2018-09-30T04:23:32.571Z,0.00
2018-09-30T04:24:32.332Z,0.00
2018-09-30T04:25:32.366Z,0.00
2018-09-30T04:26:32.300Z,0.00
2018-09-30T04:27:32.590Z,0.00
2018-09-30T04:28:32.438Z,0.00
2018-09-30T04:29:32.279Z,0.00
2018-09-30T04:30:32.251Z,0.00
2018-09-30T04:31:32.240Z,0.00
2018-09-30T04:32:32.487Z,0.00
2018-09-30T04:33:32.585Z,0.00
2018-09-30T04:34:32.218Z,0.00
2018-09-30T04:35:32.427Z,0.00
2018-09-30T04:36:32.186Z,0.00
2018-09-30T04:37:32.172Z,0.00
2018-09-30T04:38:32.169Z,0.00
2018-09-30T04:39:32.327Z,0.00
2018-09-30T04:40:32.137Z,0.00
2018-09-30T04:41:32.127Z,0.00
2018-09-30T04:42:32.115Z,0.00
2018-09-30T04:43:32.108Z,0.00
2018-09-30T04:44:32.101Z,0.00
2018-09-30T04:45:32.076Z,0.00
2018-09-30T04:46:32.069Z,0.00
2018-09-30T04:47:32.054Z,0.00
2018-09-30T04:48:32.043Z,0.00
2018-09-30T04:49:32.055Z,0.00
2018-09-30T04:50:32.019Z,0.00
2018-09-30T04:51:32.008Z,4.00
2018-09-30T04:52:31.997Z,4.00
2018-09-30T04:53:31.986Z,0.00
2018-09-30T04:54:31.987Z,4.00
2018-09-30T04:55:31.975Z,4.00
2018-09-30T04:56:31.951Z,0.00
2018-09-30T04:57:31.992Z,8.00
2018-09-30T04:58:31.929Z,8.00
2018-09-30T04:59:31.917Z,8.00
2018-09-30T05:00:32.277Z,8.00
2018-09-30T05:01:31.893Z,12.00
2018-09-30T05:02:31.883Z,12.00
2018-09-30T05:03:31.872Z,16.00
2018-09-30T05:04:32.173Z,20.00
2018-09-30T05:05:31.860Z,16.00
2018-09-30T05:06:31.840Z,24.00
2018-09-30T05:07:32.036Z,20.00
2018-09-30T05:08:32.020Z,20.00
2018-09-30T05:09:31.807Z,28.00
2018-09-30T05:10:31.803Z,28.00
2018-09-30T05:11:31.781Z,28.00
2018-09-30T05:12:31.768Z,40.00
2018-09-30T05:13:31.757Z,40.00
2018-09-30T05:14:31.913Z,40.00
2018-09-30T05:15:31.939Z,44.00
2018-09-30T05:16:31.772Z,52.00
2018-09-30T05:17:31.971Z,56.00
2018-09-30T05:18:31.709Z,64.00
2018-09-30T05:19:31.693Z,60.00
2018-09-30T05:20:31.989Z,72.00
2018-09-30T05:21:31.939Z,76.00
2018-09-30T05:22:31.909Z,76.00
2018-09-30T05:23:31.799Z,80.00
2018-09-30T05:24:31.881Z,88.00
2018-09-30T05:25:32.225Z,92.00
2018-09-30T05:26:31.616Z,100.00
2018-09-30T05:27:31.668Z,104.00
2018-09-30T05:28:32.053Z,108.00
2018-09-30T05:29:31.571Z,112.00
2018-09-30T05:30:32.032Z,112.00
2018-09-30T05:31:31.603Z,120.00
2018-09-30T05:32:31.538Z,128.00
2018-09-30T05:33:31.823Z,124.00
2018-09-30T05:34:31.579Z,132.00
2018-09-30T05:35:31.514Z,136.00
2018-09-30T05:36:31.822Z,140.00
2018-09-30T05:37:31.531Z,148.00
2018-09-30T05:38:31.469Z,152.00
2018-09-30T05:39:31.457Z,156.00
2018-09-30T05:40:31.861Z,156.00
2018-09-30T05:41:31.682Z,164.00
2018-09-30T05:42:31.601Z,164.00
2018-09-30T05:43:31.807Z,168.00
2018-09-30T05:44:31.725Z,176.00
2018-09-30T05:45:31.408Z,176.00
2018-09-30T05:46:31.365Z,180.00
2018-09-30T05:47:31.434Z,184.00
2018-09-30T05:48:31.359Z,184.00
2018-09-30T05:49:31.343Z,188.00
2018-09-30T05:50:31.442Z,200.00
2018-09-30T05:51:31.321Z,200.00
2018-09-30T05:52:31.308Z,200.00
2018-09-30T05:53:31.298Z,212.00
2018-09-30T05:54:31.286Z,208.00
2018-09-30T05:55:31.286Z,212.00
2018-09-30T05:56:31.263Z,224.00
2018-09-30T05:57:31.282Z,224.00
2018-09-30T05:58:31.595Z,232.00
2018-09-30T05:59:31.513Z,236.00
2018-09-30T06:00:31.242Z,236.00
2018-09-30T06:01:31.202Z,240.00
2018-09-30T06:02:31.190Z,244.00
2018-09-30T06:03:31.295Z,244.00
2018-09-30T06:04:31.168Z,248.00
2018-09-30T06:05:31.172Z,252.00
2018-09-30T06:06:31.148Z,256.00
2018-09-30T06:07:31.135Z,260.00
2018-09-30T06:08:31.122Z,268.00
2018-09-30T06:09:31.521Z,268.00
2018-09-30T06:10:31.116Z,272.00
2018-09-30T06:11:31.089Z,276.00
2018-09-30T06:12:31.076Z,280.00
2018-09-30T06:13:31.065Z,280.00
2018-09-30T06:14:31.055Z,280.00
2018-09-30T06:15:31.892Z,284.00
2018-09-30T06:16:31.031Z,292.00
2018-09-30T06:17:31.024Z,296.00
2018-09-30T06:18:31.009Z,296.00
2018-09-30T06:19:30.998Z,304.00
2018-09-30T06:20:30.998Z,300.00
2018-09-30T06:21:30.978Z,308.00
2018-09-30T06:22:30.967Z,304.00
2018-09-30T06:23:31.035Z,312.00
2018-09-30T06:24:30.940Z,312.00
2018-09-30T06:25:30.941Z,316.00
2018-09-30T06:26:30.923Z,312.00
2018-09-30T06:27:30.906Z,316.00
2018-09-30T06:28:31.848Z,324.00
2018-09-30T06:29:31.436Z,324.00
2018-09-30T06:30:30.885Z,328.00
2018-09-30T06:31:30.892Z,328.00
2018-09-30T06:32:31.115Z,328.00
2018-09-30T06:33:30.841Z,332.00
2018-09-30T06:34:30.829Z,340.00
2018-09-30T06:35:30.827Z,340.00
2018-09-30T06:36:30.808Z,340.00
2018-09-30T06:37:30.796Z,344.00
2018-09-30T06:38:31.242Z,348.00
2018-09-30T06:39:30.769Z,348.00
2018-09-30T06:40:32.442Z,352.00
2018-09-30T06:41:30.750Z,356.00
2018-09-30T06:42:30.739Z,360.00
2018-09-30T06:43:31.691Z,360.00
2018-09-30T06:44:31.137Z,364.00
2018-09-30T06:45:30.787Z,372.00
2018-09-30T06:46:30.690Z,364.00
2018-09-30T06:47:31.159Z,372.00
2018-09-30T06:48:30.818Z,376.00
2018-09-30T06:49:30.654Z,380.00
2018-09-30T06:50:30.697Z,376.00
2018-09-30T06:51:31.155Z,384.00
2018-09-30T06:52:31.192Z,384.00
2018-09-30T06:53:31.139Z,388.00
2018-09-30T06:54:30.597Z,388.00
2018-09-30T06:55:30.599Z,392.00
2018-09-30T06:56:30.803Z,392.00
2018-09-30T06:57:30.564Z,396.00
2018-09-30T06:58:31.167Z,400.00
2018-09-30T06:59:30.764Z,400.00
2018-09-30T07:00:30.687Z,404.00
2018-09-30T07:01:30.891Z,424.00
2018-09-30T07:02:30.507Z,540.00
2018-09-30T07:03:30.500Z,712.00
2018-09-30T07:04:30.641Z,852.00
2018-09-30T07:05:30.556Z,924.00
2018-09-30T07:06:30.474Z,976.00
2018-09-30T07:07:30.450Z,1028.00
2018-09-30T07:08:30.439Z,1068.00
2018-09-30T07:09:30.419Z,1084.00
2018-09-30T07:10:30.564Z,1072.00
2018-09-30T07:11:30.425Z,1028.00
2018-09-30T07:12:30.397Z,1000.00
2018-09-30T07:13:30.378Z,984.00
2018-09-30T07:14:30.370Z,960.00
2018-09-30T07:15:30.363Z,1028.00
2018-09-30T07:16:30.360Z,1132.00
2018-09-30T07:17:30.336Z,1268.00
2018-09-30T07:18:30.329Z,1472.00
2018-09-30T07:19:30.314Z,1888.00
2018-09-30T07:20:30.305Z,2712.00
2018-09-30T07:21:30.306Z,3484.00
2018-09-30T07:22:30.289Z,3724.00
2018-09-30T07:23:30.267Z,3764.00
2018-09-30T07:24:30.276Z,3792.00
2018-09-30T07:25:30.246Z,3848.00
2018-09-30T07:26:30.249Z,3872.00
2018-09-30T07:27:30.252Z,3680.00
2018-09-30T07:28:30.211Z,2996.00
2018-09-30T07:29:30.199Z,2548.00
2018-09-30T07:30:30.205Z,2580.00
2018-09-30T07:31:30.188Z,2264.00
2018-09-30T07:32:30.180Z,1988.00
2018-09-30T07:33:30.142Z,1768.00
2018-09-30T07:34:30.143Z,1540.00
2018-09-30T07:35:30.131Z,1456.00
2018-09-30T07:36:30.132Z,1464.00
2018-09-30T07:37:30.109Z,1552.00
2018-09-30T07:38:30.390Z,1368.00
2018-09-30T07:39:30.131Z,1200.00
2018-09-30T07:40:30.083Z,1200.00
2018-09-30T07:41:30.064Z,1208.00
2018-09-30T07:42:30.052Z,1136.00
2018-09-30T07:43:30.042Z,1148.00
2018-09-30T07:44:30.032Z,1520.00
2018-09-30T07:45:30.018Z,2300.00
2018-09-30T07:46:30.015Z,2752.00
2018-09-30T07:47:29.995Z,2540.00
2018-09-30T07:48:30.094Z,1736.00
2018-09-30T07:49:29.973Z,1240.00
2018-09-30T07:50:29.960Z,1144.00
2018-09-30T07:51:30.008Z,968.00
2018-09-30T07:52:29.976Z,1188.00
2018-09-30T07:53:30.003Z,1512.00
2018-09-30T07:54:29.912Z,1636.00
2018-09-30T07:55:29.986Z,1752.00
2018-09-30T07:56:29.942Z,2460.00
2018-09-30T07:57:29.878Z,4688.00
2018-09-30T07:58:29.867Z,3004.00
2018-09-30T07:59:29.854Z,2044.00
2018-09-30T08:00:29.844Z,2076.00
2018-09-30T08:01:29.844Z,2988.00
2018-09-30T08:02:29.821Z,4192.00
2018-09-30T08:03:29.809Z,4084.00
2018-09-30T08:04:29.797Z,3364.00
2018-09-30T08:05:29.789Z,3460.00
2018-09-30T08:06:29.811Z,3104.00
2018-09-30T08:07:29.765Z,2264.00
2018-09-30T08:08:29.752Z,2364.00
2018-09-30T08:09:29.743Z,3012.00
2018-09-30T08:10:29.758Z,4020.00
2018-09-30T08:11:29.730Z,4604.00
2018-09-30T08:12:29.711Z,4776.00
2018-09-30T08:13:29.696Z,4264.00
2018-09-30T08:14:29.688Z,3832.00
2018-09-30T08:15:29.673Z,4032.00
2018-09-30T08:16:29.745Z,3776.00
2018-09-30T08:17:29.657Z,3456.00
2018-09-30T08:18:29.643Z,4004.00
2018-09-30T08:19:29.624Z,5056.00
2018-09-30T08:20:29.619Z,5852.00
2018-09-30T08:21:29.613Z,5996.00
2018-09-30T08:22:29.592Z,6028.00
2018-09-30T08:23:29.578Z,6044.00
2018-09-30T08:24:29.697Z,6056.00
2018-09-30T08:25:29.559Z,6076.00
2018-09-30T08:26:29.562Z,6152.00
2018-09-30T08:27:29.537Z,6200.00
2018-09-30T08:28:29.522Z,6348.00
2018-09-30T08:29:29.510Z,7152.00
2018-09-30T08:30:29.507Z,9204.00
2018-09-30T08:31:29.503Z,12416.00
2018-09-30T08:32:29.477Z,12256.00
2018-09-30T08:33:29.465Z,9372.00
2018-09-30T08:34:29.454Z,8064.00
2018-09-30T08:35:29.442Z,7780.00
2018-09-30T08:36:29.443Z,11060.00
2018-09-30T08:37:29.419Z,16832.00
2018-09-30T08:38:29.414Z,21440.00
2018-09-30T08:39:29.486Z,19552.00
2018-09-30T08:40:29.389Z,14528.00
2018-09-30T08:41:29.386Z,10400.00
2018-09-30T08:42:29.363Z,6828.00
2018-09-30T08:43:29.351Z,6932.00
2018-09-30T08:44:29.379Z,6760.00
2018-09-30T08:45:29.330Z,6192.00
2018-09-30T08:46:29.326Z,5896.00
2018-09-30T08:47:29.441Z,5784.00
2018-09-30T08:48:29.292Z,5724.00
2018-09-30T08:49:29.288Z,5628.00
2018-09-30T08:50:29.315Z,5580.00
2018-09-30T08:51:29.270Z,5488.00
2018-09-30T08:52:29.335Z,5400.00
2018-09-30T08:53:29.235Z,5292.00
2018-09-30T08:54:29.225Z,5208.00
2018-09-30T08:55:29.213Z,5136.00
2018-09-30T08:56:29.214Z,5100.00
2018-09-30T08:57:29.195Z,5092.00
2018-09-30T08:58:29.178Z,5084.00
2018-09-30T08:59:29.171Z,5072.00
2018-09-30T09:00:29.164Z,5068.00
2018-09-30T09:01:29.176Z,5364.00
2018-09-30T09:02:29.138Z,6272.00
2018-09-30T09:03:29.122Z,12416.00
2018-09-30T09:04:29.111Z,25952.00
2018-09-30T09:05:29.099Z,22880.00
2018-09-30T09:06:29.089Z,10896.00
2018-09-30T09:07:29.089Z,5744.00
2018-09-30T09:08:29.253Z,4952.00
2018-09-30T09:09:29.057Z,4616.00
2018-09-30T09:10:29.043Z,4444.00
2018-09-30T09:11:29.025Z,4336.00
2018-09-30T09:12:29.044Z,4252.00
2018-09-30T09:13:29.009Z,4160.00
2018-09-30T09:14:28.993Z,4052.00
2018-09-30T09:15:29.011Z,3952.00
2018-09-30T09:16:29.216Z,3880.00
2018-09-30T09:17:28.995Z,3820.00
2018-09-30T09:18:28.954Z,3748.00
2018-09-30T09:19:28.950Z,3672.00
2018-09-30T09:20:29.371Z,3560.00
2018-09-30T09:21:28.914Z,3440.00
2018-09-30T09:22:28.989Z,3256.00
2018-09-30T09:23:28.891Z,2948.00
2018-09-30T09:24:28.880Z,2632.00
2018-09-30T09:25:28.871Z,2340.00
2018-09-30T09:26:28.857Z,1964.00
2018-09-30T09:27:28.868Z,1640.00
2018-09-30T09:28:28.839Z,1428.00
2018-09-30T09:29:28.824Z,1260.00
2018-09-30T09:30:29.438Z,1128.00
2018-09-30T09:31:28.893Z,1032.00
2018-09-30T09:32:28.801Z,980.00
2018-09-30T09:33:28.778Z,944.00
2018-09-30T09:34:28.767Z,924.00
2018-09-30T09:35:29.516Z,908.00
2018-09-30T09:36:28.745Z,892.00
2018-09-30T09:37:28.744Z,884.00
2018-09-30T09:38:28.806Z,876.00
2018-09-30T09:39:28.774Z,868.00
2018-09-30T09:40:28.723Z,860.00
2018-09-30T09:41:28.688Z,856.00
2018-09-30T09:42:28.687Z,848.00
2018-09-30T09:43:28.673Z,840.00
2018-09-30T09:44:28.654Z,832.00
2018-09-30T09:45:28.642Z,828.00
2018-09-30T09:46:28.635Z,824.00
2018-09-30T09:47:28.631Z,820.00
2018-09-30T09:48:28.654Z,816.00
2018-09-30T09:49:28.646Z,812.00
2018-09-30T09:50:28.588Z,808.00
2018-09-30T09:51:28.574Z,808.00
2018-09-30T09:52:28.640Z,804.00
2018-09-30T09:53:28.551Z,804.00
2018-09-30T09:54:28.661Z,800.00
2018-09-30T09:55:28.535Z,796.00
2018-09-30T09:56:28.519Z,792.00
2018-09-30T09:57:28.521Z,792.00
2018-09-30T09:58:28.687Z,792.00
2018-09-30T09:59:28.524Z,788.00
2018-09-30T10:00:28.473Z,784.00
2018-09-30T10:01:28.689Z,784.00
2018-09-30T10:02:28.493Z,784.00
2018-09-30T10:03:28.440Z,784.00
2018-09-30T10:04:28.428Z,780.00
2018-09-30T10:05:28.420Z,780.00
2018-09-30T10:06:28.405Z,776.00
2018-09-30T10:07:28.845Z,776.00
2018-09-30T10:08:28.455Z,776.00
2018-09-30T10:09:28.378Z,776.00
2018-09-30T10:10:28.361Z,776.00
2018-09-30T10:11:28.348Z,776.00
2018-09-30T10:12:28.781Z,776.00
2018-09-30T10:13:28.325Z,776.00
2018-09-30T10:14:28.684Z,772.00
2018-09-30T10:15:28.472Z,776.00
2018-09-30T10:16:28.295Z,768.00
2018-09-30T10:17:28.289Z,768.00
2018-09-30T10:18:28.269Z,768.00
2018-09-30T10:19:28.298Z,768.00
2018-09-30T10:20:28.461Z,764.00
2018-09-30T10:21:28.542Z,764.00
2018-09-30T10:22:28.280Z,764.00
2018-09-30T10:23:28.406Z,764.00
2018-09-30T10:24:28.418Z,760.00
2018-09-30T10:25:28.371Z,756.00
2018-09-30T10:26:28.253Z,760.00
2018-09-30T10:27:28.331Z,756.00
2018-09-30T10:28:28.168Z,756.00
2018-09-30T10:29:28.219Z,752.00
2018-09-30T10:30:28.130Z,752.00
2018-09-30T10:31:28.122Z,752.00
2018-09-30T10:32:28.700Z,748.00
2018-09-30T10:33:28.096Z,752.00
2018-09-30T10:34:28.227Z,752.00
2018-09-30T10:35:28.073Z,752.00
2018-09-30T10:36:28.062Z,744.00
2018-09-30T10:37:28.063Z,748.00
2018-09-30T10:38:28.082Z,744.00
2018-09-30T10:39:28.028Z,740.00
2018-09-30T10:40:28.017Z,744.00
2018-09-30T10:41:28.234Z,740.00
2018-09-30T10:42:28.143Z,740.00
2018-09-30T10:43:28.173Z,740.00
2018-09-30T10:44:27.971Z,740.00
2018-09-30T10:45:27.962Z,736.00
2018-09-30T10:46:27.949Z,736.00
2018-09-30T10:47:27.942Z,736.00
2018-09-30T10:48:27.985Z,736.00
2018-09-30T10:49:27.915Z,732.00
2018-09-30T10:50:27.911Z,732.00
2018-09-30T10:51:27.896Z,728.00
2018-09-30T10:52:27.895Z,728.00
2018-09-30T10:53:27.870Z,728.00
2018-09-30T10:54:27.916Z,724.00
2018-09-30T10:55:27.936Z,720.00
2018-09-30T10:56:27.844Z,720.00
2018-09-30T10:57:27.841Z,720.00
2018-09-30T10:58:27.814Z,716.00
2018-09-30T10:59:27.862Z,716.00
2018-09-30T11:00:27.820Z,716.00
2018-09-30T11:01:27.781Z,716.00
2018-09-30T11:02:27.785Z,708.00
2018-09-30T11:03:27.795Z,708.00
2018-09-30T11:04:27.746Z,712.00
2018-09-30T11:05:27.740Z,708.00
2018-09-30T11:06:27.732Z,708.00
2018-09-30T11:07:27.728Z,704.00
2018-09-30T11:08:27.701Z,704.00
2018-09-30T11:09:27.720Z,704.00
2018-09-30T11:10:27.682Z,700.00
2018-09-30T11:11:27.668Z,704.00
2018-09-30T11:12:27.831Z,700.00
2018-09-30T11:13:27.657Z,696.00
2018-09-30T11:14:27.635Z,696.00
2018-09-30T11:15:27.622Z,696.00
2018-09-30T11:16:27.602Z,692.00
2018-09-30T11:17:27.599Z,692.00
2018-09-30T11:18:27.600Z,692.00
2018-09-30T11:19:27.582Z,688.00
2018-09-30T11:20:27.565Z,688.00
2018-09-30T11:21:27.557Z,684.00
2018-09-30T11:22:27.598Z,684.00
2018-09-30T11:23:27.545Z,680.00
2018-09-30T11:24:27.525Z,676.00
2018-09-30T11:25:27.509Z,676.00
2018-09-30T11:26:27.550Z,676.00
2018-09-30T11:27:27.486Z,676.00
2018-09-30T11:28:28.059Z,676.00
2018-09-30T11:29:27.651Z,672.00
2018-09-30T11:30:27.452Z,668.00
2018-09-30T11:31:27.440Z,664.00
2018-09-30T11:32:27.430Z,664.00
2018-09-30T11:33:27.431Z,660.00
2018-09-30T11:34:27.411Z,660.00
2018-09-30T11:35:27.936Z,660.00
2018-09-30T11:36:27.381Z,656.00
2018-09-30T11:37:27.365Z,656.00
2018-09-30T11:38:27.504Z,656.00
2018-09-30T11:39:27.358Z,652.00
2018-09-30T11:40:27.345Z,652.00
2018-09-30T11:41:28.075Z,648.00
2018-09-30T11:42:27.636Z,648.00
2018-09-30T11:43:29.556Z,648.00
2018-09-30T11:44:27.323Z,648.00
2018-09-30T11:45:27.293Z,640.00
2018-09-30T11:46:27.277Z,640.00
2018-09-30T11:47:27.265Z,640.00
2018-09-30T11:48:27.267Z,640.00
2018-09-30T11:49:27.243Z,636.00
2018-09-30T11:50:27.274Z,632.00
2018-09-30T11:51:27.284Z,628.00
2018-09-30T11:52:27.221Z,616.00
2018-09-30T11:53:27.211Z,604.00
2018-09-30T11:54:27.188Z,592.00
2018-09-30T11:55:27.175Z,584.00
2018-09-30T11:56:27.235Z,568.00
2018-09-30T11:57:27.153Z,556.00
2018-09-30T11:58:27.303Z,552.00
2018-09-30T11:59:27.131Z,544.00
2018-09-30T12:00:27.123Z,540.00
2018-09-30T12:01:27.112Z,536.00
2018-09-30T12:02:27.113Z,528.00
2018-09-30T12:03:27.105Z,520.00
2018-09-30T12:04:27.078Z,516.00
2018-09-30T12:05:27.067Z,516.00
2018-09-30T12:06:27.059Z,512.00
2018-09-30T12:07:27.044Z,508.00
2018-09-30T12:08:27.046Z,508.00
2018-09-30T12:09:27.024Z,508.00
2018-09-30T12:10:27.011Z,508.00
2018-09-30T12:11:27.004Z,504.00
2018-09-30T12:12:26.992Z,500.00
2018-09-30T12:13:26.989Z,496.00
2018-09-30T12:14:26.969Z,496.00
2018-09-30T12:15:26.959Z,492.00
2018-09-30T12:16:26.942Z,488.00
2018-09-30T12:17:26.937Z,488.00
2018-09-30T12:18:26.935Z,488.00
2018-09-30T12:19:26.912Z,484.00
2018-09-30T12:20:26.902Z,484.00
2018-09-30T12:21:26.894Z,480.00
2018-09-30T12:22:26.883Z,472.00
2018-09-30T12:23:26.880Z,472.00
2018-09-30T12:24:26.856Z,468.00
2018-09-30T12:25:26.845Z,464.00
2018-09-30T12:26:26.836Z,460.00
2018-09-30T12:27:26.823Z,460.00
2018-09-30T12:28:26.840Z,456.00
2018-09-30T12:29:27.226Z,456.00
2018-09-30T12:30:26.792Z,452.00
2018-09-30T12:31:26.781Z,448.00
2018-09-30T12:32:26.771Z,444.00
2018-09-30T12:33:26.772Z,444.00
2018-09-30T12:34:26.824Z,436.00
2018-09-30T12:35:26.736Z,436.00
2018-09-30T12:36:26.734Z,436.00
2018-09-30T12:37:26.719Z,432.00
2018-09-30T12:38:26.715Z,428.00
2018-09-30T12:39:26.809Z,424.00
2018-09-30T12:40:26.686Z,424.00
2018-09-30T12:41:26.669Z,420.00
2018-09-30T12:42:26.656Z,420.00
2018-09-30T12:43:26.657Z,420.00
2018-09-30T12:44:26.634Z,412.00
2018-09-30T12:45:26.623Z,416.00
2018-09-30T12:46:26.612Z,412.00
2018-09-30T12:47:26.601Z,408.00
2018-09-30T12:48:26.960Z,404.00
2018-09-30T12:49:26.590Z,400.00
2018-09-30T12:50:26.567Z,400.00
2018-09-30T12:51:26.556Z,392.00
2018-09-30T12:52:26.544Z,388.00
2018-09-30T12:53:26.548Z,388.00
2018-09-30T12:54:26.527Z,384.00
2018-09-30T12:55:26.510Z,380.00
2018-09-30T12:56:26.500Z,380.00
2018-09-30T12:57:26.493Z,376.00
2018-09-30T12:58:26.494Z,376.00
2018-09-30T12:59:26.468Z,368.00
2018-09-30T13:00:26.455Z,372.00
2018-09-30T13:01:26.723Z,372.00
2018-09-30T13:02:26.433Z,368.00
2018-09-30T13:03:26.433Z,364.00
2018-09-30T13:04:26.412Z,368.00
2018-09-30T13:05:26.400Z,364.00
2018-09-30T13:06:26.387Z,364.00
2018-09-30T13:07:26.375Z,364.00
2018-09-30T13:08:26.375Z,364.00
2018-09-30T13:09:26.352Z,364.00
2018-09-30T13:10:26.344Z,364.00
2018-09-30T13:11:26.333Z,360.00
2018-09-30T13:12:26.348Z,364.00
2018-09-30T13:13:26.339Z,360.00
2018-09-30T13:14:26.306Z,360.00
2018-09-30T13:15:26.292Z,360.00
2018-09-30T13:16:26.274Z,356.00
2018-09-30T13:17:26.266Z,360.00
2018-09-30T13:18:26.251Z,356.00
2018-09-30T13:19:26.251Z,360.00
2018-09-30T13:20:26.232Z,356.00
2018-09-30T13:21:26.213Z,356.00
2018-09-30T13:22:26.189Z,360.00
2018-09-30T13:23:26.239Z,356.00
2018-09-30T13:24:26.207Z,356.00
2018-09-30T13:25:26.168Z,356.00
2018-09-30T13:26:26.158Z,356.00
2018-09-30T13:27:26.145Z,352.00
2018-09-30T13:28:26.134Z,352.00
2018-09-30T13:29:26.134Z,352.00
2018-09-30T13:30:26.111Z,352.00
2018-09-30T13:31:26.102Z,352.00
2018-09-30T13:32:26.091Z,348.00
2018-09-30T13:33:26.148Z,352.00
2018-09-30T13:34:26.079Z,348.00
2018-09-30T13:35:26.055Z,344.00
2018-09-30T13:36:26.043Z,348.00
2018-09-30T13:37:26.032Z,348.00
2018-09-30T13:38:26.017Z,344.00
2018-09-30T13:39:26.022Z,344.00
2018-09-30T13:40:26.109Z,344.00
2018-09-30T13:41:26.060Z,344.00
2018-09-30T13:42:25.980Z,344.00
2018-09-30T13:43:25.965Z,340.00
2018-09-30T13:44:25.987Z,340.00
2018-09-30T13:45:25.941Z,344.00
2018-09-30T13:46:25.935Z,340.00
2018-09-30T13:47:25.934Z,340.00
2018-09-30T13:48:25.908Z,340.00
2018-09-30T13:49:25.910Z,340.00
2018-09-30T13:50:25.888Z,336.00
2018-09-30T13:51:25.875Z,336.00
2018-09-30T13:52:25.864Z,340.00
2018-09-30T13:53:25.856Z,336.00
2018-09-30T13:54:25.853Z,336.00
2018-09-30T13:55:25.826Z,336.00
2018-09-30T13:56:25.822Z,332.00
2018-09-30T13:57:25.810Z,332.00
2018-09-30T13:58:25.907Z,332.00
2018-09-30T13:59:25.800Z,332.00
2018-09-30T14:00:25.777Z,336.00
2018-09-30T14:01:25.766Z,332.00
2018-09-30T14:02:25.754Z,332.00
2018-09-30T14:03:25.750Z,328.00
2018-09-30T14:04:26.530Z,332.00
2018-09-30T14:05:25.721Z,328.00
2018-09-30T14:06:25.709Z,332.00
2018-09-30T14:07:25.697Z,332.00
2018-09-30T14:08:25.699Z,328.00
2018-09-30T14:09:26.606Z,328.00
2018-09-30T14:10:25.664Z,328.00
2018-09-30T14:11:25.660Z,328.00
2018-09-30T14:12:25.641Z,328.00
2018-09-30T14:13:25.663Z,328.00
2018-09-30T14:14:25.635Z,328.00
2018-09-30T14:15:25.607Z,328.00
2018-09-30T14:16:25.596Z,324.00
2018-09-30T14:17:25.649Z,328.00
2018-09-30T14:18:25.787Z,324.00
2018-09-30T14:19:25.581Z,324.00
2018-09-30T14:20:25.553Z,324.00
2018-09-30T14:21:25.548Z,324.00
2018-09-30T14:22:25.528Z,324.00
2018-09-30T14:23:25.544Z,320.00
2018-09-30T14:24:25.517Z,320.00
2018-09-30T14:25:25.499Z,320.00
2018-09-30T14:26:25.483Z,324.00
2018-09-30T14:27:25.708Z,320.00
2018-09-30T14:28:26.070Z,320.00
2018-09-30T14:29:25.463Z,320.00
2018-09-30T14:30:25.438Z,320.00
2018-09-30T14:31:25.422Z,320.00
2018-09-30T14:32:25.410Z,316.00
2018-09-30T14:33:25.400Z,316.00
2018-09-30T14:34:25.828Z,320.00
2018-09-30T14:35:25.662Z,316.00
2018-09-30T14:36:25.366Z,316.00
2018-09-30T14:37:25.355Z,316.00
2018-09-30T14:38:25.343Z,316.00
2018-09-30T14:39:25.347Z,312.00
2018-09-30T14:40:25.322Z,316.00
2018-09-30T14:41:25.436Z,312.00
2018-09-30T14:42:25.295Z,312.00
2018-09-30T14:43:25.508Z,312.00
2018-09-30T14:44:25.895Z,312.00
2018-09-30T14:45:25.260Z,312.00
2018-09-30T14:46:26.329Z,312.00
2018-09-30T14:47:26.454Z,308.00
2018-09-30T14:48:25.327Z,312.00
2018-09-30T14:49:25.226Z,308.00
2018-09-30T14:50:25.203Z,308.00
2018-09-30T14:51:25.192Z,308.00
2018-09-30T14:52:25.181Z,304.00
2018-09-30T14:53:25.170Z,308.00
2018-09-30T14:54:25.218Z,304.00
2018-09-30T14:55:25.147Z,304.00
2018-09-30T14:56:25.149Z,304.00
2018-09-30T14:57:25.124Z,304.00
2018-09-30T14:58:25.281Z,304.00
2018-09-30T14:59:25.114Z,300.00
2018-09-30T15:00:25.231Z,300.00
2018-09-30T15:01:25.079Z,300.00
2018-09-30T15:02:25.068Z,300.00
2018-09-30T15:03:25.057Z,300.00
2018-09-30T15:04:25.065Z,296.00
2018-09-30T15:05:25.191Z,296.00
2018-09-30T15:06:25.025Z,300.00
2018-09-30T15:07:26.111Z,296.00
2018-09-30T15:08:25.003Z,296.00
2018-09-30T15:09:25.004Z,292.00
2018-09-30T15:10:24.974Z,296.00
2018-09-30T15:11:25.760Z,292.00
2018-09-30T15:12:25.179Z,292.00
2018-09-30T15:13:24.947Z,288.00
2018-09-30T15:14:24.948Z,292.00
2018-09-30T15:15:24.932Z,288.00
2018-09-30T15:16:24.915Z,288.00
2018-09-30T15:17:24.933Z,288.00
2018-09-30T15:18:24.894Z,284.00
2018-09-30T15:19:24.903Z,288.00
2018-09-30T15:20:24.873Z,284.00
2018-09-30T15:21:24.860Z,284.00
2018-09-30T15:22:24.845Z,280.00
2018-09-30T15:23:24.838Z,280.00
2018-09-30T15:24:25.151Z,284.00
2018-09-30T15:25:24.819Z,280.00
2018-09-30T15:26:24.903Z,280.00
2018-09-30T15:27:27.691Z,276.00
2018-09-30T15:28:24.885Z,276.00
2018-09-30T15:29:24.805Z,272.00
2018-09-30T15:30:24.863Z,276.00
2018-09-30T15:31:24.743Z,272.00
2018-09-30T15:32:26.343Z,272.00
2018-09-30T15:33:25.175Z,272.00
2018-09-30T15:34:25.694Z,268.00
2018-09-30T15:35:24.739Z,268.00
2018-09-30T15:36:24.696Z,268.00
2018-09-30T15:37:24.680Z,264.00
2018-09-30T15:38:24.656Z,260.00
2018-09-30T15:39:24.723Z,264.00
2018-09-30T15:40:24.667Z,264.00
2018-09-30T15:41:24.631Z,260.00
2018-09-30T15:42:24.635Z,256.00
2018-09-30T15:43:24.619Z,260.00
2018-09-30T15:44:24.607Z,256.00
2018-09-30T15:45:24.610Z,256.00
2018-09-30T15:46:24.991Z,256.00